createdAt,value
2019-02-05T00:00:32.361Z,22.6
2019-02-05T00:01:20.064Z,22.7
2019-02-05T00:02:09.827Z,22.9
2019-02-05T00:03:00.153Z,23
2019-02-05T00:03:51.579Z,23.2
2019-02-05T00:04:38.949Z,23.3
2019-02-05T00:05:30.609Z,23.2
2019-02-05T00:06:20.809Z,22.6
2019-02-05T00:07:10.161Z,22.1
2019-02-05T00:08:00.776Z,21.8
2019-02-05T00:08:51.398Z,21.4
2019-02-05T00:10:29.925Z,20.9
2019-02-05T00:11:20.446Z,20.8
2019-02-05T00:12:10.606Z,20.7
2019-02-05T00:13:01.261Z,20.5
2019-02-05T00:13:50.448Z,20.4
2019-02-05T00:14:41.301Z,20.3
2019-02-05T00:15:31.716Z,20.2
2019-02-05T00:16:21.193Z,20
2019-02-05T00:17:11.213Z,19.8
2019-02-05T00:18:00.831Z,19.6
2019-02-05T00:18:54.845Z,19.4
2019-02-05T00:19:41.340Z,19.5
2019-02-05T00:20:31.480Z,20.2
2019-02-05T00:21:21.269Z,20.9
2019-02-05T00:22:10.952Z,21.3
2019-02-05T00:23:01.103Z,21.7
2019-02-05T00:23:50.907Z,21.9
2019-02-05T00:24:42.437Z,22.2
2019-02-05T00:25:31.600Z,22.4
2019-02-05T00:26:22.355Z,22.6
2019-02-05T00:27:12.446Z,22.8
2019-02-05T00:28:05.080Z,22.9
2019-02-05T00:28:52.530Z,23.1
2019-02-05T00:29:41.875Z,23.2
2019-02-05T00:30:31.857Z,23.3
2019-02-05T00:31:22.159Z,23
2019-02-05T00:32:11.942Z,22.4
2019-02-05T00:33:01.496Z,22
2019-02-05T00:33:52.797Z,21.6
2019-02-05T00:34:42.407Z,21.3
2019-02-05T00:35:33.019Z,21.1
2019-02-05T00:36:21.932Z,20.9
2019-02-05T00:37:15.317Z,20.7
2019-02-05T00:38:03.187Z,20.6
2019-02-05T00:38:52.967Z,20.5
2019-02-05T00:39:42.740Z,20.4
2019-02-05T00:40:33.616Z,20.3
2019-02-05T00:41:23.405Z,20.2
2019-02-05T00:42:13.465Z,19.9
2019-02-05T00:43:03.392Z,19.8
2019-02-05T00:43:53.299Z,19.6
2019-02-05T00:44:43.175Z,19.4
2019-02-05T00:45:33.696Z,19.4
2019-02-05T00:46:25.089Z,20.2
2019-02-05T00:47:13.325Z,20.9
2019-02-05T00:48:04.074Z,21.3
2019-02-05T00:48:53.649Z,21.7
2019-02-05T00:49:44.321Z,21.9
2019-02-05T00:50:33.335Z,22.2
2019-02-05T00:51:24.081Z,22.4
2019-02-05T00:52:14.611Z,22.6
2019-02-05T00:53:03.958Z,22.8
2019-02-05T00:53:54.863Z,22.9
2019-02-05T00:54:44.218Z,23.1
2019-02-05T00:55:36.493Z,23.2
2019-02-05T00:56:26.396Z,23.3
2019-02-05T00:57:14.793Z,22.9
2019-02-05T00:58:04.075Z,22.4
2019-02-05T00:58:55.003Z,21.9
2019-02-05T00:59:44.470Z,21.6
2019-02-05T01:00:34.860Z,21.3
2019-02-05T01:01:25.363Z,21.1
2019-02-05T01:02:14.636Z,20.9
2019-02-05T01:03:05.475Z,20.7
2019-02-05T01:03:54.653Z,20.6
2019-02-05T01:04:48.332Z,20.4
2019-02-05T01:05:34.853Z,20.3
2019-02-05T01:06:25.150Z,20.2
2019-02-05T01:07:15.199Z,20.2
2019-02-05T01:08:05.860Z,20
2019-02-05T01:08:55.633Z,19.8
2019-02-05T01:09:44.842Z,19.6
2019-02-05T01:10:36.835Z,19.5
2019-02-05T01:11:25.902Z,19.4
2019-02-05T01:12:15.290Z,20.1
2019-02-05T01:13:04.464Z,20.8
2019-02-05T01:13:57.949Z,21.3
2019-02-05T01:14:45.004Z,21.6
2019-02-05T01:15:34.824Z,21.9
2019-02-05T01:16:25.724Z,22.2
2019-02-05T01:17:14.859Z,22.4
2019-02-05T01:18:05.750Z,22.6
2019-02-05T01:18:56.038Z,22.8
2019-02-05T01:19:46.875Z,22.9
2019-02-05T01:20:36.261Z,23.1
2019-02-05T01:21:25.948Z,23.2
2019-02-05T01:22:16.561Z,23.3
2019-02-05T01:23:08.074Z,23.1
2019-02-05T01:23:55.838Z,22.4
2019-02-05T01:24:46.727Z,22
2019-02-05T01:25:36.936Z,21.6
2019-02-05T01:26:39.769Z,21.3
2019-02-05T01:27:15.864Z,21.1
2019-02-05T01:28:06.723Z,20.9
2019-02-05T01:28:58.129Z,20.8
2019-02-05T01:29:46.853Z,20.6
2019-02-05T01:30:37.268Z,20.4
2019-02-05T01:31:27.471Z,20.3
2019-02-05T01:32:19.780Z,20.3
2019-02-05T01:33:07.156Z,20.2
2019-02-05T01:33:56.570Z,20
2019-02-05T01:34:47.441Z,19.8
2019-02-05T01:35:37.365Z,19.6
2019-02-05T01:36:26.225Z,19.5
2019-02-05T01:37:17.445Z,19.4
2019-02-05T01:38:07.898Z,19.9
2019-02-05T01:38:56.942Z,20.6
2019-02-05T01:40:37.307Z,21.5
2019-02-05T01:41:30.493Z,21.9
2019-02-05T01:42:16.873Z,22.1
2019-02-05T01:43:07.027Z,22.3
2019-02-05T01:43:56.480Z,22.5
2019-02-05T01:44:47.820Z,22.7
2019-02-05T01:45:37.675Z,22.9
2019-02-05T01:46:28.286Z,23
2019-02-05T01:47:18.147Z,23.1
2019-02-05T01:48:06.813Z,23.3
2019-02-05T01:48:58.477Z,23.3
2019-02-05T01:49:48.022Z,22.6
2019-02-05T01:50:40.272Z,22.2
2019-02-05T01:51:28.314Z,21.8
2019-02-05T01:52:17.389Z,21.4
2019-02-05T01:53:07.688Z,21.2
2019-02-05T01:53:58.514Z,21
2019-02-05T01:54:47.759Z,20.8
2019-02-05T01:55:38.717Z,20.6
2019-02-05T01:56:40.139Z,20.6
2019-02-05T01:57:18.729Z,20.4
2019-02-05T01:58:08.387Z,20.3
2019-02-05T01:58:58.342Z,20.3
2019-02-05T01:59:51.257Z,20.1
2019-02-05T02:00:39.072Z,19.9
2019-02-05T02:01:29.116Z,19.7
2019-02-05T02:02:18.024Z,19.5
2019-02-05T02:03:09.480Z,19.4
2019-02-05T02:03:58.691Z,19.8
2019-02-05T02:04:49.366Z,20.6
2019-02-05T02:05:40.769Z,21.1
2019-02-05T02:06:28.661Z,21.5
2019-02-05T02:07:18.739Z,21.8
2019-02-05T02:08:09.141Z,22.1
2019-02-05T02:09:01.388Z,22.3
2019-02-05T02:09:49.163Z,22.5
2019-02-05T02:10:39.609Z,22.7
2019-02-05T02:11:29.353Z,22.8
2019-02-05T02:12:20.341Z,23
2019-02-05T02:13:09.201Z,23.1
2019-02-05T02:14:00.226Z,23.3
2019-02-05T02:14:51.663Z,23.1
2019-02-05T02:15:40.126Z,22.5
2019-02-05T02:16:30.385Z,22
2019-02-05T02:17:19.981Z,21.6
2019-02-05T02:18:12.220Z,21.4
2019-02-05T02:19:50.342Z,20.9
2019-02-05T02:20:40.144Z,20.8
2019-02-05T02:21:29.607Z,20.6
2019-02-05T02:22:20.684Z,20.5
2019-02-05T02:23:10.923Z,20.4
2019-02-05T02:24:02.826Z,20.3
2019-02-05T02:24:51.080Z,20.2
2019-02-05T02:25:40.741Z,20.1
2019-02-05T02:26:30.565Z,19.9
2019-02-05T02:27:23.347Z,19.7
2019-02-05T02:28:10.654Z,19.5
2019-02-05T02:29:00.710Z,19.4
2019-02-05T02:29:51.836Z,19.9
2019-02-05T02:30:40.958Z,20.6
2019-02-05T02:32:21.588Z,21.5
2019-02-05T02:33:13.707Z,21.9
2019-02-05T02:34:01.102Z,22.1
2019-02-05T02:34:51.242Z,22.3
2019-02-05T02:35:41.178Z,22.5
2019-02-05T02:36:31.911Z,22.6
2019-02-05T02:37:21.657Z,22.8
2019-02-05T02:38:10.980Z,23
2019-02-05T02:39:01.654Z,23.1
2019-02-05T02:39:51.236Z,23.3
2019-02-05T02:40:41.042Z,23.1
2019-02-05T02:41:30.705Z,22.6
2019-02-05T02:42:24.259Z,22.1
2019-02-05T02:43:10.744Z,21.7
2019-02-05T02:44:02.376Z,21.4
2019-02-05T02:44:50.559Z,21.2
2019-02-05T02:45:42.298Z,20.9
2019-02-05T02:46:31.209Z,20.8
2019-02-05T02:47:22.100Z,20.6
2019-02-05T02:48:12.209Z,20.5
2019-02-05T02:49:02.486Z,20.4
2019-02-05T02:49:52.376Z,20.3
2019-02-05T02:50:42.986Z,20.2
2019-02-05T02:51:34.386Z,20.1
2019-02-05T02:52:22.786Z,19.9
2019-02-05T02:53:12.028Z,19.7
2019-02-05T02:54:02.729Z,19.6
2019-02-05T02:54:57.644Z,19.4
2019-02-05T02:55:43.403Z,19.9
2019-02-05T02:56:32.621Z,20.6
2019-02-05T02:57:23.599Z,21.1
2019-02-05T02:58:16.557Z,21.5
2019-02-05T02:59:03.030Z,21.8
2019-02-05T02:59:52.280Z,22.1
2019-02-05T03:00:45.239Z,22.3
2019-02-05T03:01:33.020Z,22.5
2019-02-05T03:02:22.793Z,22.6
2019-02-05T03:03:13.242Z,22.8
2019-02-05T03:04:03.582Z,22.9
2019-02-05T03:04:53.094Z,23.1
2019-02-05T03:08:25.158Z,22
2019-02-05T03:09:15.454Z,21.6
2019-02-05T03:10:07.215Z,21.3
2019-02-05T03:10:55.605Z,21.1
2019-02-05T03:11:45.600Z,20.9
2019-02-05T03:12:35.405Z,20.7
2019-02-05T03:13:29.059Z,20.6
2019-02-05T03:14:15.915Z,20.4
2019-02-05T03:15:06.354Z,20.3
2019-02-05T03:15:56.545Z,20.2
2019-02-05T03:16:46.891Z,20.2
2019-02-05T03:17:35.529Z,20
2019-02-05T03:18:25.908Z,19.8
2019-02-05T03:19:19.392Z,19.6
2019-02-05T03:20:06.642Z,19.5
2019-02-05T03:20:56.052Z,19.4
2019-02-05T03:21:46.347Z,20
2019-02-05T03:22:35.965Z,20.7
2019-02-05T03:24:16.674Z,21.5
2019-02-05T03:25:09.609Z,21.8
2019-02-05T03:25:56.425Z,22.1
2019-02-05T03:26:46.858Z,22.3
2019-02-05T03:27:36.411Z,22.4
2019-02-05T03:28:26.521Z,22.6
2019-02-05T03:29:16.495Z,22.8
2019-02-05T03:30:06.798Z,22.9
2019-02-05T03:31:01.337Z,23.1
2019-02-05T03:31:47.515Z,23.1
2019-02-05T03:32:37.422Z,23.3
2019-02-05T03:33:28.077Z,22.8
2019-02-05T03:34:17.638Z,22.3
2019-02-05T03:35:08.423Z,21.9
2019-02-05T03:35:57.356Z,21.5
2019-02-05T03:36:48.089Z,21.3
2019-02-05T03:37:36.747Z,21
2019-02-05T03:38:26.754Z,20.8
2019-02-05T03:39:17.393Z,20.7
2019-02-05T03:40:10.321Z,20.6
2019-02-05T03:40:57.560Z,20.4
2019-02-05T03:41:47.823Z,20.3
2019-02-05T03:42:38.517Z,20.2
2019-02-05T03:43:27.087Z,20.1
2019-02-05T03:44:17.495Z,19.9
2019-02-05T03:45:07.912Z,19.8
2019-02-05T03:46:00.720Z,19.6
2019-02-05T03:46:47.800Z,19.4
2019-02-05T03:47:37.020Z,19.5
2019-02-05T03:48:27.885Z,20.3
2019-02-05T03:49:18.116Z,20.9
2019-02-05T03:50:08.747Z,21.3
2019-02-05T03:50:58.537Z,21.6
2019-02-05T03:51:50.512Z,21.9
2019-02-05T03:52:38.618Z,22.2
2019-02-05T03:53:27.502Z,22.4
2019-02-05T03:54:19.003Z,22.3
2019-02-05T03:55:09.339Z,21.8
2019-02-05T03:55:58.782Z,20.9
2019-02-05T03:56:48.799Z,20.3
2019-02-05T03:59:39.619Z,19.7
2019-02-05T03:59:53.229Z,18.3
2019-02-05T04:00:40.476Z,18.3
2019-02-05T04:01:30.875Z,18.6
2019-02-05T04:02:20.942Z,19.4
2019-02-05T04:03:11.706Z,20.1
2019-02-05T04:04:01.283Z,20.6
2019-02-05T04:04:50.799Z,21.1
2019-02-05T04:05:41.924Z,21.4
2019-02-05T04:06:30.901Z,21.7
2019-02-05T04:07:20.944Z,21.9
2019-02-05T04:08:11.576Z,22.2
2019-02-05T04:09:03.526Z,22.4
2019-02-05T04:09:51.246Z,22.6
2019-02-05T04:10:41.168Z,22.8
2019-02-05T04:11:31.536Z,22.9
2019-02-05T04:12:20.807Z,23
2019-02-05T04:13:11.650Z,23.1
2019-02-05T04:14:01.418Z,23.1
2019-02-05T04:14:51.744Z,22.6
2019-02-05T04:15:42.082Z,22.1
2019-02-05T04:16:31.615Z,21.7
2019-02-05T04:17:21.734Z,21.4
2019-02-05T04:19:01.759Z,20.9
2019-02-05T04:19:51.880Z,20.8
2019-02-05T04:20:42.171Z,20.6
2019-02-05T04:21:31.949Z,20.4
2019-02-05T04:22:22.266Z,20.3
2019-02-05T04:23:11.909Z,20.3
2019-02-05T04:24:03.951Z,20.2
2019-02-05T04:24:52.458Z,20.1
2019-02-05T04:25:42.696Z,19.9
2019-02-05T04:26:32.238Z,19.8
2019-02-05T04:27:25.154Z,19.6
2019-02-05T04:28:11.931Z,19.5
2019-02-05T04:29:03.083Z,19.7
2019-02-05T04:29:52.940Z,20.5
2019-02-05T04:30:42.736Z,21
2019-02-05T04:31:33.238Z,21.4
2019-02-05T04:32:22.755Z,21.8
2019-02-05T04:33:15.476Z,22
2019-02-05T04:34:02.923Z,22.3
2019-02-05T04:34:52.631Z,22.4
2019-02-05T04:35:43.484Z,22.6
2019-02-05T04:36:34.428Z,22.8
2019-02-05T04:37:23.060Z,22.9
2019-02-05T04:38:12.656Z,23.1
2019-02-05T04:39:03.343Z,23.2
2019-02-05T04:39:53.624Z,23.1
2019-02-05T04:40:43.898Z,22.5
2019-02-05T04:41:33.942Z,22
2019-02-05T04:42:26.573Z,21.6
2019-02-05T04:43:13.220Z,21.3
2019-02-05T04:44:03.271Z,21.1
2019-02-05T04:44:53.755Z,20.9
2019-02-05T04:45:44.911Z,20.8
2019-02-05T04:46:34.470Z,20.6
2019-02-05T04:47:23.547Z,20.5
2019-02-05T04:48:14.479Z,20.4
2019-02-05T04:49:03.873Z,20.3
2019-02-05T04:49:54.212Z,20.2
2019-02-05T04:50:43.992Z,20
2019-02-05T04:51:36.806Z,19.8
2019-02-05T04:52:23.909Z,19.6
2019-02-05T04:53:14.522Z,19.5
2019-02-05T04:54:04.954Z,19.5
2019-02-05T04:54:54.094Z,20.1
2019-02-05T04:55:44.334Z,20.8
2019-02-05T04:56:34.553Z,21.2
2019-02-05T04:57:25.714Z,21.6
2019-02-05T04:58:15.115Z,21.9
2019-02-05T04:59:04.578Z,22.1
2019-02-05T04:59:54.888Z,22.3
2019-02-05T05:00:47.653Z,22.5
2019-02-05T05:01:35.349Z,22.7
2019-02-05T05:02:25.488Z,22.8
2019-02-05T05:03:15.518Z,22.9
2019-02-05T05:04:05.492Z,23.1
2019-02-05T05:04:54.493Z,23.1
2019-02-05T05:05:45.653Z,22.6
2019-02-05T05:06:36.750Z,22.1
2019-02-05T05:07:25.196Z,21.7
2019-02-05T05:08:15.779Z,21.4
2019-02-05T05:09:58.222Z,20.9
2019-02-05T05:10:45.493Z,20.8
2019-02-05T05:11:35.521Z,20.6
2019-02-05T05:12:25.714Z,20.5
2019-02-05T05:13:15.713Z,20.4
2019-02-05T05:14:05.673Z,20.3
2019-02-05T05:14:55.748Z,20.1
2019-02-05T05:15:47.821Z,20.1
2019-02-05T05:16:35.790Z,19.9
2019-02-05T05:17:25.497Z,19.8
2019-02-05T05:18:19.025Z,19.6
2019-02-05T05:19:07.163Z,19.4
2019-02-05T05:19:56.356Z,19.8
2019-02-05T05:20:46.423Z,20.4
2019-02-05T05:21:37.320Z,20.9
2019-02-05T05:22:26.939Z,21.4
2019-02-05T05:23:16.870Z,21.7
2019-02-05T05:24:07.203Z,21.9
2019-02-05T05:24:58.929Z,22.1
2019-02-05T05:25:47.520Z,22.4
2019-02-05T05:26:36.738Z,22.5
2019-02-05T05:27:27.789Z,22.7
2019-02-05T05:28:19.515Z,22.8
2019-02-05T05:29:07.053Z,22.9
2019-02-05T05:29:57.795Z,23
2019-02-05T05:30:49.614Z,23.2
2019-02-05T05:31:38.107Z,22.7
2019-02-05T05:32:27.403Z,22.2
2019-02-05T05:33:17.479Z,21.8
2019-02-05T05:34:07.871Z,21.5
2019-02-05T05:34:57.654Z,21.2
2019-02-05T05:35:52.550Z,21
2019-02-05T05:36:38.974Z,20.8
2019-02-05T05:37:27.214Z,20.7
2019-02-05T05:38:18.174Z,20.5
2019-02-05T05:39:07.772Z,20.4
2019-02-05T05:40:02.051Z,20.3
2019-02-05T05:40:48.591Z,20.2
2019-02-05T05:41:38.216Z,20.1
2019-02-05T05:42:28.025Z,19.9
2019-02-05T05:43:17.486Z,19.8
2019-02-05T05:44:11.516Z,19.6
2019-02-05T05:44:58.103Z,19.4
2019-02-05T05:45:51.351Z,19.6
2019-02-05T05:46:38.218Z,20.4
2019-02-05T05:47:28.714Z,20.9
2019-02-05T05:48:18.853Z,21.3
2019-02-05T05:49:09.543Z,21.6
2019-02-05T05:49:58.626Z,21.9
2019-02-05T05:50:48.776Z,22.1
2019-02-05T05:51:39.880Z,22.3
2019-02-05T05:52:28.645Z,22.5
2019-02-05T05:53:18.904Z,22.7
2019-02-05T05:54:09.160Z,22.8
2019-02-05T05:55:01.721Z,22.9
2019-02-05T05:55:48.795Z,23.1
2019-02-05T05:56:38.045Z,23.1
2019-02-05T05:57:29.107Z,23
2019-02-05T05:58:34.132Z,22.4
2019-02-05T05:59:08.917Z,21.9
2019-02-05T05:59:59.122Z,21.6
2019-02-05T06:00:52.880Z,21.3
2019-02-05T06:01:38.896Z,21.1
2019-02-05T06:02:29.109Z,20.9
2019-02-05T06:03:19.741Z,20.7
2019-02-05T06:04:10.033Z,20.6
2019-02-05T06:06:24.947Z,20.3
2019-02-05T06:07:14.318Z,20.2
2019-02-05T06:08:05.908Z,20.1
2019-02-05T06:08:58.112Z,19.9
2019-02-05T06:09:45.587Z,19.6
2019-02-05T06:10:35.052Z,19.5
2019-02-05T06:11:24.899Z,19.4
2019-02-05T06:12:14.412Z,19.9
2019-02-05T06:13:05.971Z,20.6
2019-02-05T06:13:56.176Z,21
2019-02-05T06:14:46.841Z,21.4
2019-02-05T06:15:39.227Z,21.8
2019-02-05T06:16:26.099Z,22
2019-02-05T06:17:15.558Z,22.2
2019-02-05T06:18:10.031Z,22.4
2019-02-05T06:18:56.314Z,22.6
2019-02-05T06:19:45.524Z,22.7
2019-02-05T06:20:36.201Z,22.4
2019-02-05T06:21:25.349Z,21.9
2019-02-05T06:22:16.336Z,20.9
2019-02-05T06:23:06.878Z,20.3
2019-02-05T06:23:59.852Z,19.7
2019-02-05T06:24:46.256Z,18.9
2019-02-05T06:26:29.291Z,18.8
2019-02-05T06:27:16.049Z,19.3
2019-02-05T06:28:06.951Z,20
2019-02-05T06:28:57.278Z,20.6
2019-02-05T06:29:47.972Z,21
2019-02-05T06:30:36.583Z,21.4
2019-02-05T06:31:26.651Z,21.7
2019-02-05T06:32:17.318Z,21.9
2019-02-05T06:33:08.810Z,22.2
2019-02-05T06:33:57.358Z,22.4
2019-02-05T06:34:47.170Z,22.6
2019-02-05T06:35:37.240Z,22.7
2019-02-05T06:36:28.078Z,22.3
2019-02-05T06:37:17.882Z,21.8
2019-02-05T06:38:07.585Z,21.4
2019-02-05T06:38:59.458Z,21.1
2019-02-05T06:39:47.986Z,20.9
2019-02-05T06:40:38.549Z,20.6
2019-02-05T06:41:27.305Z,20.5
2019-02-05T06:42:19.717Z,20.3
2019-02-05T06:43:07.677Z,20.2
2019-02-05T06:43:57.155Z,20.1
2019-02-05T06:44:49.026Z,20
2019-02-05T06:45:37.535Z,19.9
2019-02-05T06:46:28.135Z,19.8
2019-02-05T06:47:17.685Z,19.6
2019-02-05T06:48:11.162Z,19.5
2019-02-05T06:48:58.024Z,19.3
2019-02-05T06:49:48.535Z,19.3
2019-02-05T06:50:38.729Z,19.1
2019-02-05T06:51:27.522Z,19
2019-02-05T06:52:18.645Z,18.9
2019-02-05T06:53:08.746Z,18.8
2019-02-05T06:54:00.046Z,18.8
2019-02-05T06:55:38.316Z,18.6
2019-02-05T06:56:28.957Z,18.6
2019-02-05T06:57:20.106Z,19.4
2019-02-05T06:58:08.818Z,20.2
2019-02-05T06:58:57.916Z,20.7
2019-02-05T07:00:37.484Z,21.4
2019-02-05T07:01:29.256Z,21.6
2019-02-05T07:02:18.426Z,21.7
2019-02-05T07:03:59.364Z,20.6
2019-02-05T07:06:24.543Z,19.9
2019-02-05T07:07:14.415Z,19.8
2019-02-05T07:08:04.686Z,19.6
2019-02-05T07:08:57.290Z,19.6
2019-02-05T07:09:44.289Z,19.4
2019-02-05T07:10:35.482Z,19.4
2019-02-05T07:11:25.565Z,19.3
2019-02-05T07:12:15.255Z,19.3
2019-02-05T07:13:05.239Z,19.2
2019-02-05T07:13:58.131Z,19.1
2019-02-05T07:14:47.718Z,18.9
2019-02-05T07:15:35.618Z,18.8
2019-02-05T07:17:15.438Z,18.6
2019-02-05T07:18:10.435Z,18.5
2019-02-05T07:18:55.407Z,18.4
2019-02-05T07:19:46.046Z,18.4
2019-02-05T07:20:36.707Z,18.3
2019-02-05T07:21:25.879Z,18.3
2019-02-05T07:22:16.637Z,19
2019-02-05T07:23:06.467Z,19.8
2019-02-05T07:23:58.540Z,20.4
2019-02-05T07:24:45.309Z,20.9
2019-02-05T07:25:36.467Z,21.2
2019-02-05T07:26:25.924Z,21.5
2019-02-05T07:27:15.744Z,21.8
2019-02-05T07:28:05.582Z,21.9
2019-02-05T07:29:09.792Z,21.4
2019-02-05T07:29:48.760Z,20.9
2019-02-05T07:30:36.619Z,20.6
2019-02-05T07:31:26.320Z,20.4
2019-02-05T07:32:16.754Z,20.2
2019-02-05T07:33:07.389Z,20
2019-02-05T07:33:56.571Z,19.9
2019-02-05T07:34:47.172Z,19.7
2019-02-05T07:35:38.318Z,19.6
2019-02-05T07:36:26.900Z,19.5
2019-02-05T07:37:17.997Z,19.4
2019-02-05T07:38:06.982Z,19.3
2019-02-05T07:38:56.791Z,19.1
2019-02-05T07:39:46.486Z,19
2019-02-05T07:40:36.916Z,18.9
2019-02-05T07:41:28.736Z,18.8
2019-02-05T07:42:16.744Z,18.6
2019-02-05T07:43:06.049Z,18.6
2019-02-05T07:43:56.364Z,18.4
2019-02-05T07:44:48.914Z,18.4
2019-02-05T07:45:36.259Z,18.6
2019-02-05T07:46:27.663Z,19.4
2019-02-05T07:47:19.001Z,20.1
2019-02-05T07:48:07.406Z,20.6
2019-02-05T07:48:57.077Z,20.9
2019-02-05T07:49:48.703Z,21.3
2019-02-05T07:50:40.406Z,21.6
2019-02-05T07:51:28.491Z,21.8
2019-02-05T07:52:18.193Z,21.9
2019-02-05T07:53:07.971Z,21.5
2019-02-05T07:53:57.163Z,21.1
2019-02-05T07:54:48.343Z,20.8
2019-02-05T07:55:38.058Z,20.4
2019-02-05T07:56:31.348Z,20.2
2019-02-05T07:57:18.690Z,20.1
2019-02-05T07:58:09.062Z,19.9
2019-02-05T07:59:11.458Z,19.8
2019-02-05T07:59:53.421Z,19.6
2019-02-05T08:00:38.995Z,19.5
2019-02-05T08:01:28.572Z,19.4
2019-02-05T08:02:21.822Z,19.3
2019-02-05T08:03:09.197Z,19.3
2019-02-05T08:03:59.015Z,19.1
2019-02-05T08:04:49.377Z,19
2019-02-05T08:05:39.813Z,18.9
2019-02-05T08:06:28.867Z,18.8
2019-02-05T08:07:19.437Z,18.6
2019-02-05T08:08:24.319Z,18.1
2019-02-05T08:08:59.520Z,17.9
2019-02-05T08:09:49.069Z,17.9
2019-02-05T08:10:39.274Z,18.6
2019-02-05T08:11:30.447Z,19.5
2019-02-05T08:12:19.590Z,20.2
2019-02-05T08:13:10.006Z,20.8
2019-02-05T08:14:00.273Z,21.3
2019-02-05T08:14:49.517Z,21.5
2019-02-05T08:15:39.511Z,21.8
2019-02-05T08:16:30.021Z,21.9
2019-02-05T08:17:20.413Z,21.4
2019-02-05T08:18:10.214Z,20.9
2019-02-05T08:19:00.238Z,20.6
2019-02-05T08:19:53.079Z,20.3
2019-02-05T08:20:40.677Z,20.1
2019-02-05T08:21:30.543Z,19.9
2019-02-05T08:22:20.566Z,19.8
2019-02-05T08:23:10.304Z,19.6
2019-02-05T08:24:00.572Z,19.6
2019-02-05T08:24:50.868Z,19.4
2019-02-05T08:25:42.686Z,19.4
2019-02-05T08:26:30.735Z,19.3
2019-02-05T08:27:20.333Z,19.2
2019-02-05T08:28:11.390Z,19
2019-02-05T08:29:02.822Z,18.9
2019-02-05T08:29:50.153Z,18.8
2019-02-05T08:30:40.557Z,18.6
2019-02-05T08:31:30.931Z,18.6
2019-02-05T08:32:21.520Z,18.4
2019-02-05T08:33:10.505Z,18.4
2019-02-05T08:34:03.925Z,18.3
2019-02-05T08:34:54.458Z,18.3
2019-02-05T08:35:40.898Z,18.9
2019-02-05T08:36:31.443Z,19.7
2019-02-05T08:37:22.410Z,20.4
2019-02-05T08:38:11.327Z,20.9
2019-02-05T08:39:01.880Z,21.3
2019-02-05T08:39:49.835Z,21.5
2019-02-05T08:40:44.367Z,21.8
2019-02-05T08:41:29.955Z,21.9
2019-02-05T08:42:20.808Z,21.8
2019-02-05T08:43:11.110Z,21.2
2019-02-05T08:44:03.512Z,20.8
2019-02-05T08:44:51.733Z,20.5
2019-02-05T08:45:42.013Z,20.3
2019-02-05T08:46:33.340Z,20.1
2019-02-05T08:47:22.150Z,19.9
2019-02-05T08:48:12.249Z,19.8
2019-02-05T08:49:02.854Z,19.6
2019-02-05T08:49:54.473Z,19.6
2019-02-05T08:50:42.347Z,19.4
2019-02-05T08:51:31.104Z,19.4
2019-02-05T08:52:22.276Z,19.3
2019-02-05T08:53:11.896Z,19.2
2019-02-05T08:54:02.396Z,19.1
2019-02-05T08:54:52.476Z,19
2019-02-05T08:55:45.439Z,18.9
2019-02-05T08:56:32.114Z,18.8
2019-02-05T08:57:22.891Z,18.8
2019-02-05T08:59:02.699Z,18.6
2019-02-05T08:59:53.191Z,18.5
2019-02-05T09:00:44.156Z,18.4
2019-02-05T09:01:36.211Z,18.5
2019-02-05T09:02:22.401Z,19
2019-02-05T09:03:13.910Z,19.8
2019-02-05T09:04:03.143Z,20.4
2019-02-05T09:04:53.990Z,20.9
2019-02-05T09:05:44.006Z,21.3
2019-02-05T09:06:37.314Z,21.6
2019-02-05T09:07:25.043Z,21.8
2019-02-05T09:08:13.816Z,21.9
2019-02-05T09:09:03.731Z,21.9
2019-02-05T09:09:53.794Z,21.4
2019-02-05T09:10:45.338Z,20.9
2019-02-05T09:11:32.908Z,20.6
2019-02-05T09:12:26.785Z,20.3
2019-02-05T09:13:13.492Z,20.1
2019-02-05T09:14:18.317Z,19.9
2019-02-05T09:14:53.128Z,19.8
2019-02-05T09:15:43.772Z,19.7
2019-02-05T09:16:36.783Z,19.6
2019-02-05T09:17:26.870Z,19.4
2019-02-05T09:18:13.086Z,19.3
2019-02-05T09:19:04.781Z,19.3
2019-02-05T09:19:54.032Z,19.2
2019-02-05T09:20:43.730Z,19.1
2019-02-05T09:21:34.532Z,19
2019-02-05T09:22:26.607Z,18.9
2019-02-05T09:23:17.824Z,18.8
2019-02-05T09:24:04.475Z,18.8
2019-02-05T09:25:49.767Z,18.6
2019-02-05T09:26:35.172Z,18.6
2019-02-05T09:27:25.597Z,18.5
2019-02-05T09:28:15.355Z,18.4
2019-02-05T09:29:05.707Z,18.5
2019-02-05T09:29:55.104Z,19.3
2019-02-05T09:30:46.055Z,20
2019-02-05T09:31:37.800Z,20.6
2019-02-05T09:33:15.528Z,21.4
2019-02-05T09:34:05.239Z,21.6
2019-02-05T09:34:55.831Z,21.8
2019-02-05T09:35:45.713Z,22
2019-02-05T09:36:34.621Z,21.9
2019-02-05T09:37:27.161Z,21.3
2019-02-05T09:38:32.259Z,20.9
2019-02-05T09:39:03.329Z,20.5
2019-02-05T09:39:56.173Z,20.3
2019-02-05T09:40:46.295Z,20.1
2019-02-05T09:41:35.126Z,19.9
2019-02-05T09:42:25.351Z,19.8
2019-02-05T09:43:17.552Z,19.7
2019-02-05T09:44:06.123Z,19.6
2019-02-05T09:44:56.851Z,19.5
2019-02-05T09:45:46.401Z,19.4
2019-02-05T09:46:38.834Z,19.3
2019-02-05T09:47:26.953Z,19.2
2019-02-05T09:48:16.973Z,19.1
2019-02-05T09:49:20.683Z,19
2019-02-05T09:49:56.781Z,18.9
2019-02-05T09:50:54.141Z,18.9
2019-02-05T09:51:37.465Z,18.8
2019-02-05T09:53:17.133Z,18.6
2019-02-05T09:54:06.850Z,18.5
2019-02-05T09:54:56.818Z,18.5
2019-02-05T09:55:47.808Z,18.4
2019-02-05T09:56:37.048Z,18.6
2019-02-05T09:57:27.223Z,19.3
2019-02-05T09:58:17.937Z,20
2019-02-05T09:59:07.699Z,20.6
2019-02-05T10:00:47.777Z,21.4
2019-02-05T10:01:38.043Z,21.6
2019-02-05T10:02:28.465Z,21.8
2019-02-05T10:03:18.139Z,22
2019-02-05T10:04:08.173Z,21.8
2019-02-05T10:04:57.887Z,21.3
2019-02-05T10:07:40.584Z,20.3
2019-02-05T10:08:18.016Z,20.1
2019-02-05T10:09:20.929Z,19.9
2019-02-05T10:10:14.483Z,19.8
2019-02-05T10:10:49.091Z,19.6
2019-02-05T10:12:08.499Z,19.6
2019-02-05T10:12:35.879Z,19.4
2019-02-05T10:14:12.624Z,19.4
2019-02-05T10:14:55.616Z,19.2
2019-02-05T10:15:57.876Z,19.1
2019-02-05T10:17:14.756Z,18.9
2019-02-05T10:18:38.427Z,18.9
2019-02-05T10:18:54.937Z,18.8
2019-02-05T10:20:12.800Z,18.8
2019-02-05T10:20:48.506Z,18.6
2019-02-05T10:22:19.904Z,18.6
2019-02-05T10:23:03.385Z,18.4
2019-02-05T10:23:38.241Z,18.4
2019-02-05T10:25:32.116Z,19.9
2019-02-05T10:26:30.164Z,20.7
2019-02-05T10:27:01.381Z,21.2
2019-02-05T10:27:46.949Z,21.3
2019-02-05T10:28:37.013Z,21.6
2019-02-05T10:29:30.414Z,21.8
2019-02-05T10:30:15.455Z,22
2019-02-05T10:31:06.308Z,22.2
2019-02-05T10:32:12.435Z,21.8
2019-02-05T10:32:47.290Z,21.1
2019-02-05T10:33:37.443Z,20.8
2019-02-05T10:34:39.463Z,20.5
2019-02-05T10:35:19.303Z,20.2
2019-02-05T10:36:10.816Z,20.1
2019-02-05T10:36:57.037Z,19.9
2019-02-05T10:38:02.394Z,19.8
2019-02-05T10:38:38.866Z,19.6
2019-02-05T10:39:28.607Z,19.6
2019-02-05T10:40:17.860Z,19.5
2019-02-05T10:41:08.115Z,19.4
2019-02-05T10:41:58.085Z,19.3
2019-02-05T10:42:50.810Z,19.2
2019-02-05T10:43:38.107Z,19.1
2019-02-05T10:44:30.439Z,19
2019-02-05T10:45:50.517Z,18.9
2019-02-05T10:46:07.610Z,18.8
2019-02-05T10:46:57.269Z,18.8
2019-02-05T10:48:38.618Z,18.6
2019-02-05T10:49:29.132Z,18.6
2019-02-05T10:50:21.564Z,18.5
2019-02-05T10:51:07.539Z,18.5
2019-02-05T10:51:57.567Z,18.8
2019-02-05T10:52:48.284Z,19.6
2019-02-05T10:53:38.327Z,20.4
2019-02-05T10:54:28.304Z,20.9
2019-02-05T10:55:18.417Z,21.3
2019-02-05T10:56:10.461Z,21.6
2019-02-05T10:56:58.619Z,21.9
2019-02-05T10:57:49.053Z,22.1
2019-02-05T10:58:38.090Z,22.3
2019-02-05T10:59:31.116Z,21.7
2019-02-05T11:01:08.824Z,20.8
2019-02-05T11:02:00.201Z,20.6
2019-02-05T11:02:50.303Z,20.3
2019-02-05T11:03:39.186Z,20.1
2019-02-05T11:04:29.748Z,19.9
2019-02-05T11:05:21.321Z,19.8
2019-02-05T11:06:08.526Z,19.7
2019-02-05T11:06:59.200Z,19.6
2019-02-05T11:07:49.686Z,19.5
2019-02-05T11:08:54.433Z,19.4
2019-02-05T11:09:29.315Z,19.3
2019-02-05T11:10:19.670Z,19.3
2019-02-05T11:11:12.425Z,19.1
2019-02-05T11:11:59.898Z,19.1
2019-02-05T11:12:49.579Z,18.9
2019-02-05T11:13:39.624Z,18.9
2019-02-05T11:14:30.387Z,18.8
2019-02-05T11:15:20.830Z,18.8
2019-02-05T11:17:00.725Z,18.6
2019-02-05T11:17:50.147Z,18.6
2019-02-05T11:18:40.722Z,18.6
2019-02-05T11:19:30.102Z,19.1
2019-02-05T11:20:23.172Z,20
2019-02-05T11:21:13.415Z,20.8
2019-02-05T11:22:00.530Z,21.2
2019-02-05T11:22:50.909Z,21.5
2019-02-05T11:23:41.372Z,21.9
2019-02-05T11:24:31.495Z,22.1
2019-02-05T11:25:21.295Z,22.3
2019-02-05T11:26:14.135Z,22
2019-02-05T11:27:02.048Z,21.4
2019-02-05T11:27:53.989Z,21
2019-02-05T11:28:40.889Z,20.7
2019-02-05T11:29:32.075Z,20.4
2019-02-05T11:30:28.525Z,20.2
2019-02-05T11:31:11.449Z,20.1
2019-02-05T11:32:02.789Z,19.9
2019-02-05T11:32:54.486Z,19.8
2019-02-05T11:33:41.289Z,19.7
2019-02-05T11:34:32.551Z,19.6
2019-02-05T11:35:24.358Z,19.5
2019-02-05T11:36:11.729Z,19.4
2019-02-05T11:37:02.577Z,19.3